EGLL/LHR METAR and TAF weather

Enter ICAO airport designator
Station Type Date Time Source
EGLL METAR 2024/04/17 18:50 UTC NOAA

EGLL 171850Z AUTO 36009KT 320V030 9999 NCD 09/01 Q1015


Station Type Date Time Source
EGLL Decoded METAR 2024/04/17 18:50 UTC NOAA

London / Heathrow Airport, United Kingdom (EGLL) 51-29N 000-27W 0M
Apr 17, 2024 - 02:50 PM EDT / 2024.04.17 1850 UTC
Wind: from the N (360 degrees) at 10 MPH (9 KT) (direction variable):0
Visibility: greater than 7 mile(s):0
Temperature: 48 F (9 C)
Dew Point: 33 F (1 C)
Relative Humidity: 57%
Pressure (altimeter): 29.97 in. Hg (1015 hPa)
ob: EGLL 171850Z AUTO 36009KT 320V030 9999 NCD 09/01 Q1015
cycle: 19

Station Type Date Time Source
EGLL TAF 2024/04/17 18:15 UTC NOAA